sensor_id;sensor_type;location;lat;lon;timestamp;P1;durP1;ratioP1;P2;durP2;ratioP2
59416;SDS011;45222;52.458;20.914;2023-10-19T00:00:00;35.40;;;25.10;;
59416;SDS011;45222;52.458;20.914;2023-10-19T00:04:24;29.10;;;11.10;;
59416;SDS011;45222;52.458;20.914;2023-10-19T00:08:09;35.70;;;26.50;;
59416;SDS011;45222;52.458;20.914;2023-10-19T00:12:01;40.30;;;29.20;;
59416;SDS011;45222;52.458;20.914;2023-10-19T00:15:46;31.80;;;15.80;;
59416;SDS011;45222;52.458;20.914;2023-10-19T00:19:33;32.70;;;23.10;;
59416;SDS011;45222;52.458;20.914;2023-10-19T00:23:23;25.50;;;11.40;;
59416;SDS011;45222;52.458;20.914;2023-10-19T00:27:12;33.00;;;24.70;;
59416;SDS011;45222;52.458;20.914;2023-10-19T00:31:00;34.80;;;26.40;;
59416;SDS011;45222;52.458;20.914;2023-10-19T00:34:47;37.50;;;27.20;;
59416;SDS011;45222;52.458;20.914;2023-10-19T00:38:35;35.40;;;27.40;;
59416;SDS011;45222;52.458;20.914;2023-10-19T00:42:33;25.20;;;11.30;;
59416;SDS011;45222;52.458;20.914;2023-10-19T00:46:22;33.10;;;25.20;;
59416;SDS011;45222;52.458;20.914;2023-10-19T00:50:14;23.10;;;11.00;;
59416;SDS011;45222;52.458;20.914;2023-10-19T00:54:06;34.50;;;25.80;;
59416;SDS011;45222;52.458;20.914;2023-10-19T00:57:56;30.00;;;12.50;;
59416;SDS011;45222;52.458;20.914;2023-10-19T01:01:42;34.30;;;25.30;;
59416;SDS011;45222;52.458;20.914;2023-10-19T01:05:28;35.10;;;26.10;;
59416;SDS011;45222;52.458;20.914;2023-10-19T01:09:19;30.50;;;23.80;;
59416;SDS011;45222;52.458;20.914;2023-10-19T01:13:04;30.90;;;22.30;;
59416;SDS011;45222;52.458;20.914;2023-10-19T01:16:49;30.20;;;22.80;;
59416;SDS011;45222;52.458;20.914;2023-10-19T01:20:35;34.20;;;24.50;;
59416;SDS011;45222;52.458;20.914;2023-10-19T01:24:34;33.60;;;25.80;;
59416;SDS011;45222;52.458;20.914;2023-10-19T01:28:25;34.70;;;26.40;;
59416;SDS011;45222;52.458;20.914;2023-10-19T01:32:26;47.80;;;17.20;;
59416;SDS011;45222;52.458;20.914;2023-10-19T01:36:14;50.60;;;19.10;;
59416;SDS011;45222;52.458;20.914;2023-10-19T01:40:00;75.80;;;51.50;;
59416;SDS011;45222;52.458;20.914;2023-10-19T01:43:46;78.60;;;52.30;;
59416;SDS011;45222;52.458;20.914;2023-10-19T01:47:36;56.40;;;23.50;;
59416;SDS011;45222;52.458;20.914;2023-10-19T01:51:24;83.80;;;54.50;;
59416;SDS011;45222;52.458;20.914;2023-10-19T01:55:11;89.60;;;56.20;;
59416;SDS011;45222;52.458;20.914;2023-10-19T01:58:56;147.80;;;77.90;;
59416;SDS011;45222;52.458;20.914;2023-10-19T02:02:43;96.00;;;58.30;;
59416;SDS011;45222;52.458;20.914;2023-10-19T02:06:28;93.30;;;57.90;;
59416;SDS011;45222;52.458;20.914;2023-10-19T02:10:20;77.20;;;52.40;;
59416;SDS011;45222;52.458;20.914;2023-10-19T02:14:06;39.20;;;17.70;;
59416;SDS011;45222;52.458;20.914;2023-10-19T02:17:57;56.20;;;40.60;;
59416;SDS011;45222;52.458;20.914;2023-10-19T02:21:45;47.50;;;20.00;;
59416;SDS011;45222;52.458;20.914;2023-10-19T02:25:32;47.50;;;19.00;;
59416;SDS011;45222;52.458;20.914;2023-10-19T02:29:20;55.20;;;39.40;;
59416;SDS011;45222;52.458;20.914;2023-10-19T02:33:05;56.10;;;41.00;;
59416;SDS011;45222;52.458;20.914;2023-10-19T02:36:51;56.60;;;41.00;;
59416;SDS011;45222;52.458;20.914;2023-10-19T02:40:36;39.00;;;15.30;;
59416;SDS011;45222;52.458;20.914;2023-10-19T02:44:22;54.00;;;40.00;;
59416;SDS011;45222;52.458;20.914;2023-10-19T02:48:09;37.90;;;17.00;;
59416;SDS011;45222;52.458;20.914;2023-10-19T02:51:56;48.50;;;35.70;;
59416;SDS011;45222;52.458;20.914;2023-10-19T02:55:47;48.30;;;36.00;;
59416;SDS011;45222;52.458;20.914;2023-10-19T02:59:35;52.50;;;37.20;;
59416;SDS011;45222;52.458;20.914;2023-10-19T03:03:20;67.90;;;46.30;;
59416;SDS011;45222;52.458;20.914;2023-10-19T03:07:05;67.90;;;47.30;;
59416;SDS011;45222;52.458;20.914;2023-10-19T03:10:51;66.90;;;46.00;;
59416;SDS011;45222;52.458;20.914;2023-10-19T03:14:47;45.40;;;18.10;;
59416;SDS011;45222;52.458;20.914;2023-10-19T03:18:34;64.40;;;43.90;;
59416;SDS011;45222;52.458;20.914;2023-10-19T03:22:19;51.20;;;36.80;;
59416;SDS011;45222;52.458;20.914;2023-10-19T03:26:04;46.30;;;33.40;;
59416;SDS011;45222;52.458;20.914;2023-10-19T03:30:07;45.70;;;30.60;;
59416;SDS011;45222;52.458;20.914;2023-10-19T03:33:58;49.30;;;32.50;;
59416;SDS011;45222;52.458;20.914;2023-10-19T03:37:48;49.10;;;33.50;;
59416;SDS011;45222;52.458;20.914;2023-10-19T03:41:35;44.10;;;34.10;;
59416;SDS011;45222;52.458;20.914;2023-10-19T03:45:22;33.50;;;14.60;;
59416;SDS011;45222;52.458;20.914;2023-10-19T03:49:08;66.60;;;36.50;;
59416;SDS011;45222;52.458;20.914;2023-10-19T03:52:55;40.30;;;30.40;;
59416;SDS011;45222;52.458;20.914;2023-10-19T03:56:41;38.50;;;28.90;;
59416;SDS011;45222;52.458;20.914;2023-10-19T04:00:27;36.80;;;28.70;;
59416;SDS011;45222;52.458;20.914;2023-10-19T04:04:17;41.80;;;29.50;;
59416;SDS011;45222;52.458;20.914;2023-10-19T04:08:04;43.00;;;31.30;;
59416;SDS011;45222;52.458;20.914;2023-10-19T04:11:56;40.40;;;31.50;;
59416;SDS011;45222;52.458;20.914;2023-10-19T04:15:41;33.90;;;15.20;;
59416;SDS011;45222;52.458;20.914;2023-10-19T04:19:27;43.90;;;36.20;;
59416;SDS011;45222;52.458;20.914;2023-10-19T04:23:12;41.70;;;31.90;;
59416;SDS011;45222;52.458;20.914;2023-10-19T04:26:59;41.60;;;32.40;;
59416;SDS011;45222;52.458;20.914;2023-10-19T04:30:45;42.30;;;32.40;;
59416;SDS011;45222;52.458;20.914;2023-10-19T04:34:31;42.90;;;32.50;;
59416;SDS011;45222;52.458;20.914;2023-10-19T04:38:17;55.60;;;34.70;;
59416;SDS011;45222;52.458;20.914;2023-10-19T04:42:03;37.40;;;16.60;;
59416;SDS011;45222;52.458;20.914;2023-10-19T04:45:49;53.00;;;36.20;;
59416;SDS011;45222;52.458;20.914;2023-10-19T04:49:34;48.10;;;36.80;;
59416;SDS011;45222;52.458;20.914;2023-10-19T04:53:21;31.30;;;15.50;;
59416;SDS011;45222;52.458;20.914;2023-10-19T04:57:06;46.30;;;33.20;;
59416;SDS011;45222;52.458;20.914;2023-10-19T05:00:52;34.90;;;15.20;;
59416;SDS011;45222;52.458;20.914;2023-10-19T05:04:37;42.00;;;32.70;;
59416;SDS011;45222;52.458;20.914;2023-10-19T05:08:24;33.30;;;15.40;;
59416;SDS011;45222;52.458;20.914;2023-10-19T05:12:11;47.00;;;34.50;;
59416;SDS011;45222;52.458;20.914;2023-10-19T05:15:58;47.00;;;37.30;;
59416;SDS011;45222;52.458;20.914;2023-10-19T05:19:43;49.20;;;36.50;;
59416;SDS011;45222;52.458;20.914;2023-10-19T05:23:29;52.00;;;36.80;;
59416;SDS011;45222;52.458;20.914;2023-10-19T05:27:14;41.90;;;19.10;;
59416;SDS011;45222;52.458;20.914;2023-10-19T05:31:01;52.70;;;37.90;;
59416;SDS011;45222;52.458;20.914;2023-10-19T05:34:47;45.40;;;34.30;;
59416;SDS011;45222;52.458;20.914;2023-10-19T05:38:33;47.00;;;37.90;;
59416;SDS011;45222;52.458;20.914;2023-10-19T05:42:18;46.60;;;38.40;;
59416;SDS011;45222;52.458;20.914;2023-10-19T05:46:05;43.40;;;35.70;;
59416;SDS011;45222;52.458;20.914;2023-10-19T05:49:50;43.30;;;34.90;;
59416;SDS011;45222;52.458;20.914;2023-10-19T05:53:35;43.90;;;22.30;;
59416;SDS011;45222;52.458;20.914;2023-10-19T05:57:21;50.90;;;22.00;;
59416;SDS011;45222;52.458;20.914;2023-10-19T06:01:07;37.70;;;18.10;;
59416;SDS011;45222;52.458;20.914;2023-10-19T06:04:53;44.20;;;36.50;;
59416;SDS011;45222;52.458;20.914;2023-10-19T06:08:40;50.40;;;38.70;;
59416;SDS011;45222;52.458;20.914;2023-10-19T06:12:25;51.90;;;38.30;;
59416;SDS011;45222;52.458;20.914;2023-10-19T06:16:11;45.50;;;36.50;;
59416;SDS011;45222;52.458;20.914;2023-10-19T06:19:58;54.40;;;34.70;;
59416;SDS011;45222;52.458;20.914;2023-10-19T06:23:43;44.30;;;34.00;;
59416;SDS011;45222;52.458;20.914;2023-10-19T06:27:29;47.20;;;36.20;;
59416;SDS011;45222;52.458;20.914;2023-10-19T06:31:14;47.40;;;37.60;;
59416;SDS011;45222;52.458;20.914;2023-10-19T06:35:00;41.20;;;19.00;;
59416;SDS011;45222;52.458;20.914;2023-10-19T06:38:45;46.40;;;37.90;;
59416;SDS011;45222;52.458;20.914;2023-10-19T06:42:33;49.40;;;36.40;;
59416;SDS011;45222;52.458;20.914;2023-10-19T06:46:19;35.70;;;19.10;;
59416;SDS011;45222;52.458;20.914;2023-10-19T06:50:06;43.50;;;34.20;;
59416;SDS011;45222;52.458;20.914;2023-10-19T06:53:53;42.70;;;35.70;;
59416;SDS011;45222;52.458;20.914;2023-10-19T06:57:41;46.90;;;36.60;;
59416;SDS011;45222;52.458;20.914;2023-10-19T07:01:27;44.90;;;37.00;;
59416;SDS011;45222;52.458;20.914;2023-10-19T07:05:15;44.40;;;36.60;;
59416;SDS011;45222;52.458;20.914;2023-10-19T07:09:07;41.60;;;33.10;;
59416;SDS011;45222;52.458;20.914;2023-10-19T07:12:54;35.70;;;29.60;;
59416;SDS011;45222;52.458;20.914;2023-10-19T07:16:41;37.60;;;31.30;;
59416;SDS011;45222;52.458;20.914;2023-10-19T07:20:26;42.40;;;32.10;;
59416;SDS011;45222;52.458;20.914;2023-10-19T07:24:16;42.00;;;33.30;;
59416;SDS011;45222;52.458;20.914;2023-10-19T07:28:03;41.50;;;32.20;;
59416;SDS011;45222;52.458;20.914;2023-10-19T07:31:49;36.50;;;29.90;;
59416;SDS011;45222;52.458;20.914;2023-10-19T07:35:39;34.60;;;28.60;;
59416;SDS011;45222;52.458;20.914;2023-10-19T07:39:27;32.00;;;26.60;;
59416;SDS011;45222;52.458;20.914;2023-10-19T07:43:13;33.00;;;28.60;;
59416;SDS011;45222;52.458;20.914;2023-10-19T07:46:58;31.00;;;26.30;;
59416;SDS011;45222;52.458;20.914;2023-10-19T07:50:44;31.00;;;26.40;;
59416;SDS011;45222;52.458;20.914;2023-10-19T07:54:29;33.20;;;26.70;;
59416;SDS011;45222;52.458;20.914;2023-10-19T07:58:14;27.30;;;22.70;;
59416;SDS011;45222;52.458;20.914;2023-10-19T08:01:59;26.60;;;20.90;;
59416;SDS011;45222;52.458;20.914;2023-10-19T08:05:45;24.00;;;20.40;;
59416;SDS011;45222;52.458;20.914;2023-10-19T08:09:30;27.40;;;21.30;;
59416;SDS011;45222;52.458;20.914;2023-10-19T08:13:18;27.80;;;22.10;;
59416;SDS011;45222;52.458;20.914;2023-10-19T08:17:04;26.40;;;21.40;;
59416;SDS011;45222;52.458;20.914;2023-10-19T08:20:50;24.70;;;19.80;;
59416;SDS011;45222;52.458;20.914;2023-10-19T08:24:36;23.50;;;19.50;;
59416;SDS011;45222;52.458;20.914;2023-10-19T08:28:21;23.50;;;19.40;;
59416;SDS011;45222;52.458;20.914;2023-10-19T08:32:06;27.50;;;21.10;;
59416;SDS011;45222;52.458;20.914;2023-10-19T08:35:51;25.20;;;22.20;;
59416;SDS011;45222;52.458;20.914;2023-10-19T08:39:37;27.10;;;22.30;;
59416;SDS011;45222;52.458;20.914;2023-10-19T08:43:24;25.60;;;22.00;;
59416;SDS011;45222;52.458;20.914;2023-10-19T08:47:09;28.80;;;21.60;;
59416;SDS011;45222;52.458;20.914;2023-10-19T08:50:55;23.90;;;20.00;;
59416;SDS011;45222;52.458;20.914;2023-10-19T08:54:41;25.10;;;20.80;;
59416;SDS011;45222;52.458;20.914;2023-10-19T08:58:27;25.20;;;20.40;;
59416;SDS011;45222;52.458;20.914;2023-10-19T09:02:13;79.10;;;22.80;;
59416;SDS011;45222;52.458;20.914;2023-10-19T09:06:01;23.80;;;20.60;;
59416;SDS011;45222;52.458;20.914;2023-10-19T09:09:48;23.30;;;19.50;;
59416;SDS011;45222;52.458;20.914;2023-10-19T09:13:38;22.10;;;17.70;;
59416;SDS011;45222;52.458;20.914;2023-10-19T09:17:30;21.70;;;18.10;;
59416;SDS011;45222;52.458;20.914;2023-10-19T09:21:17;24.00;;;18.90;;
59416;SDS011;45222;52.458;20.914;2023-10-19T09:25:10;23.40;;;18.30;;
59416;SDS011;45222;52.458;20.914;2023-10-19T09:28:56;20.00;;;17.40;;
59416;SDS011;45222;52.458;20.914;2023-10-19T09:32:41;25.00;;;18.70;;
59416;SDS011;45222;52.458;20.914;2023-10-19T09:36:26;19.80;;;16.90;;
59416;SDS011;45222;52.458;20.914;2023-10-19T09:40:13;20.30;;;16.10;;
59416;SDS011;45222;52.458;20.914;2023-10-19T09:44:01;18.70;;;15.70;;
59416;SDS011;45222;52.458;20.914;2023-10-19T09:47:50;18.80;;;15.80;;
59416;SDS011;45222;52.458;20.914;2023-10-19T09:51:37;19.00;;;15.60;;
59416;SDS011;45222;52.458;20.914;2023-10-19T09:55:26;19.00;;;15.10;;
59416;SDS011;45222;52.458;20.914;2023-10-19T09:59:26;17.00;;;14.10;;
59416;SDS011;45222;52.458;20.914;2023-10-19T10:07:29;17.90;;;13.30;;
59416;SDS011;45222;52.458;20.914;2023-10-19T10:11:15;18.50;;;13.60;;
59416;SDS011;45222;52.458;20.914;2023-10-19T10:15:10;16.80;;;14.20;;
59416;SDS011;45222;52.458;20.914;2023-10-19T10:18:56;18.60;;;13.10;;
59416;SDS011;45222;52.458;20.914;2023-10-19T10:22:44;18.20;;;13.20;;
59416;SDS011;45222;52.458;20.914;2023-10-19T10:26:58;20.40;;;13.80;;
59416;SDS011;45222;52.458;20.914;2023-10-19T10:34:59;16.90;;;12.50;;
59416;SDS011;45222;52.458;20.914;2023-10-19T10:38:46;17.20;;;12.40;;
59416;SDS011;45222;52.458;20.914;2023-10-19T10:42:32;16.70;;;11.80;;
59416;SDS011;45222;52.458;20.914;2023-10-19T10:46:17;15.40;;;12.20;;
59416;SDS011;45222;52.458;20.914;2023-10-19T10:50:05;16.40;;;11.90;;
59416;SDS011;45222;52.458;20.914;2023-10-19T10:53:53;15.50;;;11.50;;
59416;SDS011;45222;52.458;20.914;2023-10-19T10:57:38;15.50;;;11.60;;
59416;SDS011;45222;52.458;20.914;2023-10-19T11:01:32;15.00;;;11.60;;
59416;SDS011;45222;52.458;20.914;2023-10-19T11:05:17;13.40;;;9.60;;
59416;SDS011;45222;52.458;20.914;2023-10-19T11:09:09;22.10;;;9.70;;
59416;SDS011;45222;52.458;20.914;2023-10-19T11:13:00;13.70;;;9.90;;
59416;SDS011;45222;52.458;20.914;2023-10-19T11:16:45;13.60;;;9.40;;
59416;SDS011;45222;52.458;20.914;2023-10-19T11:20:31;14.10;;;10.80;;
59416;SDS011;45222;52.458;20.914;2023-10-19T11:24:24;15.00;;;11.30;;
59416;SDS011;45222;52.458;20.914;2023-10-19T11:28:16;15.60;;;10.30;;
59416;SDS011;45222;52.458;20.914;2023-10-19T11:32:02;16.30;;;10.70;;
59416;SDS011;45222;52.458;20.914;2023-10-19T11:35:49;15.60;;;11.30;;
59416;SDS011;45222;52.458;20.914;2023-10-19T11:39:35;14.60;;;11.40;;
59416;SDS011;45222;52.458;20.914;2023-10-19T11:43:21;14.80;;;11.40;;
59416;SDS011;45222;52.458;20.914;2023-10-19T11:47:06;15.10;;;11.80;;
59416;SDS011;45222;52.458;20.914;2023-10-19T11:50:51;17.30;;;12.60;;
59416;SDS011;45222;52.458;20.914;2023-10-19T11:54:36;20.30;;;12.90;;
59416;SDS011;45222;52.458;20.914;2023-10-19T11:58:21;15.30;;;11.90;;
59416;SDS011;45222;52.458;20.914;2023-10-19T12:02:07;15.10;;;12.10;;
59416;SDS011;45222;52.458;20.914;2023-10-19T12:05:53;18.10;;;12.40;;
59416;SDS011;45222;52.458;20.914;2023-10-19T12:09:40;17.20;;;12.20;;
59416;SDS011;45222;52.458;20.914;2023-10-19T12:13:25;15.80;;;11.80;;
59416;SDS011;45222;52.458;20.914;2023-10-19T12:17:11;18.00;;;12.30;;
59416;SDS011;45222;52.458;20.914;2023-10-19T12:20:56;15.40;;;12.40;;
59416;SDS011;45222;52.458;20.914;2023-10-19T12:24:43;17.40;;;12.20;;
59416;SDS011;45222;52.458;20.914;2023-10-19T12:28:28;16.80;;;11.70;;
59416;SDS011;45222;52.458;20.914;2023-10-19T12:32:13;16.60;;;11.20;;
59416;SDS011;45222;52.458;20.914;2023-10-19T12:36:00;15.90;;;11.50;;
59416;SDS011;45222;52.458;20.914;2023-10-19T12:39:54;15.90;;;12.20;;
59416;SDS011;45222;52.458;20.914;2023-10-19T12:43:39;18.70;;;11.40;;
59416;SDS011;45222;52.458;20.914;2023-10-19T12:47:25;15.20;;;11.60;;
59416;SDS011;45222;52.458;20.914;2023-10-19T12:51:10;16.60;;;12.10;;
59416;SDS011;45222;52.458;20.914;2023-10-19T12:54:57;16.10;;;11.90;;
59416;SDS011;45222;52.458;20.914;2023-10-19T12:58:44;17.00;;;12.20;;
59416;SDS011;45222;52.458;20.914;2023-10-19T13:02:29;21.40;;;12.00;;
59416;SDS011;45222;52.458;20.914;2023-10-19T13:06:14;16.10;;;11.90;;
59416;SDS011;45222;52.458;20.914;2023-10-19T13:10:00;17.40;;;12.20;;
59416;SDS011;45222;52.458;20.914;2023-10-19T13:13:48;15.10;;;11.90;;
59416;SDS011;45222;52.458;20.914;2023-10-19T13:17:33;40.10;;;14.00;;
59416;SDS011;45222;52.458;20.914;2023-10-19T13:21:20;14.60;;;11.20;;
59416;SDS011;45222;52.458;20.914;2023-10-19T13:25:11;14.00;;;10.40;;
59416;SDS011;45222;52.458;20.914;2023-10-19T13:28:56;16.30;;;10.90;;
59416;SDS011;45222;52.458;20.914;2023-10-19T13:32:42;17.50;;;11.20;;
59416;SDS011;45222;52.458;20.914;2023-10-19T13:36:27;14.20;;;11.10;;
59416;SDS011;45222;52.458;20.914;2023-10-19T13:40:13;16.50;;;11.90;;
59416;SDS011;45222;52.458;20.914;2023-10-19T13:43:58;16.40;;;11.40;;
59416;SDS011;45222;52.458;20.914;2023-10-19T13:47:44;16.10;;;11.40;;
59416;SDS011;45222;52.458;20.914;2023-10-19T13:51:29;64.60;;;12.90;;
59416;SDS011;45222;52.458;20.914;2023-10-19T13:55:15;19.10;;;11.30;;
59416;SDS011;45222;52.458;20.914;2023-10-19T13:59:02;19.80;;;11.80;;
59416;SDS011;45222;52.458;20.914;2023-10-19T14:02:49;16.30;;;11.80;;
59416;SDS011;45222;52.458;20.914;2023-10-19T14:06:35;22.60;;;11.20;;
59416;SDS011;45222;52.458;20.914;2023-10-19T14:10:23;15.40;;;11.00;;
59416;SDS011;45222;52.458;20.914;2023-10-19T14:14:08;15.70;;;11.70;;
59416;SDS011;45222;52.458;20.914;2023-10-19T14:17:55;61.20;;;13.60;;
59416;SDS011;45222;52.458;20.914;2023-10-19T14:21:42;24.20;;;12.20;;
59416;SDS011;45222;52.458;20.914;2023-10-19T14:25:30;16.60;;;10.70;;
59416;SDS011;45222;52.458;20.914;2023-10-19T14:29:15;30.40;;;11.60;;
59416;SDS011;45222;52.458;20.914;2023-10-19T14:33:01;16.00;;;11.20;;
59416;SDS011;45222;52.458;20.914;2023-10-19T14:36:47;16.50;;;11.30;;
59416;SDS011;45222;52.458;20.914;2023-10-19T14:40:32;14.70;;;11.70;;
59416;SDS011;45222;52.458;20.914;2023-10-19T14:44:17;19.20;;;11.20;;
59416;SDS011;45222;52.458;20.914;2023-10-19T14:48:03;15.40;;;10.80;;
59416;SDS011;45222;52.458;20.914;2023-10-19T14:51:52;15.70;;;10.80;;
59416;SDS011;45222;52.458;20.914;2023-10-19T14:55:38;19.90;;;13.00;;
59416;SDS011;45222;52.458;20.914;2023-10-19T14:59:23;18.50;;;11.10;;
59416;SDS011;45222;52.458;20.914;2023-10-19T15:03:09;14.90;;;11.10;;
59416;SDS011;45222;52.458;20.914;2023-10-19T15:06:55;14.30;;;11.20;;
59416;SDS011;45222;52.458;20.914;2023-10-19T15:10:41;46.20;;;13.40;;
59416;SDS011;45222;52.458;20.914;2023-10-19T15:14:26;35.60;;;12.60;;
59416;SDS011;45222;52.458;20.914;2023-10-19T15:18:11;17.90;;;11.20;;
59416;SDS011;45222;52.458;20.914;2023-10-19T15:21:56;18.00;;;12.50;;
59416;SDS011;45222;52.458;20.914;2023-10-19T15:25:42;25.30;;;12.30;;
59416;SDS011;45222;52.458;20.914;2023-10-19T15:29:27;18.40;;;12.40;;
59416;SDS011;45222;52.458;20.914;2023-10-19T15:33:15;16.40;;;12.60;;
59416;SDS011;45222;52.458;20.914;2023-10-19T15:37:01;20.80;;;15.40;;
59416;SDS011;45222;52.458;20.914;2023-10-19T15:40:46;23.40;;;16.80;;
59416;SDS011;45222;52.458;20.914;2023-10-19T15:44:32;24.70;;;17.40;;
59416;SDS011;45222;52.458;20.914;2023-10-19T15:48:17;24.10;;;18.10;;
59416;SDS011;45222;52.458;20.914;2023-10-19T15:52:03;24.00;;;17.60;;
59416;SDS011;45222;52.458;20.914;2023-10-19T15:55:48;28.30;;;21.00;;
59416;SDS011;45222;52.458;20.914;2023-10-19T15:59:33;22.30;;;17.60;;
59416;SDS011;45222;52.458;20.914;2023-10-19T16:03:18;23.30;;;17.80;;
59416;SDS011;45222;52.458;20.914;2023-10-19T16:07:04;21.60;;;17.90;;
59416;SDS011;45222;52.458;20.914;2023-10-19T16:10:49;104.30;;;22.30;;
59416;SDS011;45222;52.458;20.914;2023-10-19T16:14:36;27.00;;;20.30;;
59416;SDS011;45222;52.458;20.914;2023-10-19T16:18:23;25.70;;;19.00;;
59416;SDS011;45222;52.458;20.914;2023-10-19T16:22:11;25.00;;;18.90;;
59416;SDS011;45222;52.458;20.914;2023-10-19T16:26:00;27.90;;;24.90;;
59416;SDS011;45222;52.458;20.914;2023-10-19T16:29:45;24.80;;;20.70;;
59416;SDS011;45222;52.458;20.914;2023-10-19T16:33:30;26.90;;;21.40;;
59416;SDS011;45222;52.458;20.914;2023-10-19T16:37:16;26.10;;;22.20;;
59416;SDS011;45222;52.458;20.914;2023-10-19T16:41:02;24.80;;;19.70;;
59416;SDS011;45222;52.458;20.914;2023-10-19T16:44:47;22.70;;;19.60;;
59416;SDS011;45222;52.458;20.914;2023-10-19T16:48:34;24.60;;;20.30;;
59416;SDS011;45222;52.458;20.914;2023-10-19T16:52:19;24.20;;;20.00;;
59416;SDS011;45222;52.458;20.914;2023-10-19T16:56:04;22.60;;;18.10;;
59416;SDS011;45222;52.458;20.914;2023-10-19T16:59:50;22.30;;;18.00;;
59416;SDS011;45222;52.458;20.914;2023-10-19T17:03:38;30.30;;;17.50;;
59416;SDS011;45222;52.458;20.914;2023-10-19T17:07:24;21.90;;;19.00;;
59416;SDS011;45222;52.458;20.914;2023-10-19T17:11:11;24.20;;;21.50;;
59416;SDS011;45222;52.458;20.914;2023-10-19T17:14:56;21.70;;;17.80;;
59416;SDS011;45222;52.458;20.914;2023-10-19T17:18:41;21.40;;;17.40;;
59416;SDS011;45222;52.458;20.914;2023-10-19T17:22:26;22.80;;;18.10;;
59416;SDS011;45222;52.458;20.914;2023-10-19T17:26:11;21.80;;;18.50;;
59416;SDS011;45222;52.458;20.914;2023-10-19T17:29:57;20.60;;;18.00;;
59416;SDS011;45222;52.458;20.914;2023-10-19T17:33:42;18.80;;;16.30;;
59416;SDS011;45222;52.458;20.914;2023-10-19T17:37:28;20.60;;;16.00;;
59416;SDS011;45222;52.458;20.914;2023-10-19T17:41:13;27.60;;;22.80;;
59416;SDS011;45222;52.458;20.914;2023-10-19T17:44:58;30.00;;;25.60;;
59416;SDS011;45222;52.458;20.914;2023-10-19T17:48:44;21.40;;;17.90;;
59416;SDS011;45222;52.458;20.914;2023-10-19T17:52:30;21.30;;;18.40;;
59416;SDS011;45222;52.458;20.914;2023-10-19T17:56:15;27.20;;;22.90;;
59416;SDS011;45222;52.458;20.914;2023-10-19T18:00:02;25.30;;;22.60;;
59416;SDS011;45222;52.458;20.914;2023-10-19T18:03:51;40.30;;;36.10;;
59416;SDS011;45222;52.458;20.914;2023-10-19T18:07:38;20.30;;;17.30;;
59416;SDS011;45222;52.458;20.914;2023-10-19T18:11:24;32.60;;;28.90;;
59416;SDS011;45222;52.458;20.914;2023-10-19T18:15:10;56.00;;;43.10;;
59416;SDS011;45222;52.458;20.914;2023-10-19T18:18:57;24.60;;;21.30;;
59416;SDS011;45222;52.458;20.914;2023-10-19T18:22:42;20.50;;;17.20;;
59416;SDS011;45222;52.458;20.914;2023-10-19T18:26:28;23.10;;;17.70;;
59416;SDS011;45222;52.458;20.914;2023-10-19T18:30:14;20.00;;;16.40;;
59416;SDS011;45222;52.458;20.914;2023-10-19T18:34:00;23.80;;;18.10;;
59416;SDS011;45222;52.458;20.914;2023-10-19T18:37:46;20.20;;;16.50;;
59416;SDS011;45222;52.458;20.914;2023-10-19T18:41:32;18.30;;;15.30;;
59416;SDS011;45222;52.458;20.914;2023-10-19T18:45:18;19.90;;;16.70;;
59416;SDS011;45222;52.458;20.914;2023-10-19T18:49:03;20.90;;;17.60;;
59416;SDS011;45222;52.458;20.914;2023-10-19T18:52:49;19.10;;;16.40;;
59416;SDS011;45222;52.458;20.914;2023-10-19T18:56:34;23.90;;;18.70;;
59416;SDS011;45222;52.458;20.914;2023-10-19T19:00:21;18.10;;;15.10;;
59416;SDS011;45222;52.458;20.914;2023-10-19T19:04:08;18.30;;;15.10;;
59416;SDS011;45222;52.458;20.914;2023-10-19T19:07:53;19.70;;;16.30;;
59416;SDS011;45222;52.458;20.914;2023-10-19T19:11:39;19.70;;;16.80;;
59416;SDS011;45222;52.458;20.914;2023-10-19T19:15:26;22.10;;;19.80;;
59416;SDS011;45222;52.458;20.914;2023-10-19T19:19:12;26.50;;;23.60;;
59416;SDS011;45222;52.458;20.914;2023-10-19T19:22:57;19.70;;;16.20;;
59416;SDS011;45222;52.458;20.914;2023-10-19T19:26:42;18.90;;;16.40;;
59416;SDS011;45222;52.458;20.914;2023-10-19T19:30:28;18.20;;;14.50;;
59416;SDS011;45222;52.458;20.914;2023-10-19T19:34:13;17.00;;;13.50;;
59416;SDS011;45222;52.458;20.914;2023-10-19T19:38:00;18.70;;;14.50;;
59416;SDS011;45222;52.458;20.914;2023-10-19T19:41:47;18.30;;;15.90;;
59416;SDS011;45222;52.458;20.914;2023-10-19T19:45:32;18.00;;;14.50;;
59416;SDS011;45222;52.458;20.914;2023-10-19T19:49:19;16.20;;;13.40;;
59416;SDS011;45222;52.458;20.914;2023-10-19T19:53:06;16.40;;;13.40;;
59416;SDS011;45222;52.458;20.914;2023-10-19T19:56:53;16.70;;;13.90;;
59416;SDS011;45222;52.458;20.914;2023-10-19T20:00:38;17.00;;;14.00;;
59416;SDS011;45222;52.458;20.914;2023-10-19T20:04:25;18.10;;;13.50;;
59416;SDS011;45222;52.458;20.914;2023-10-19T20:08:11;17.30;;;13.10;;
59416;SDS011;45222;52.458;20.914;2023-10-19T20:11:57;16.30;;;13.10;;
59416;SDS011;45222;52.458;20.914;2023-10-19T20:15:42;16.70;;;13.80;;
59416;SDS011;45222;52.458;20.914;2023-10-19T20:19:28;17.90;;;12.00;;
59416;SDS011;45222;52.458;20.914;2023-10-19T20:23:13;15.30;;;11.80;;
59416;SDS011;45222;52.458;20.914;2023-10-19T20:26:59;16.80;;;12.10;;
59416;SDS011;45222;52.458;20.914;2023-10-19T20:30:44;16.00;;;12.40;;
59416;SDS011;45222;52.458;20.914;2023-10-19T20:34:30;18.20;;;14.30;;
59416;SDS011;45222;52.458;20.914;2023-10-19T20:38:15;15.20;;;12.90;;
59416;SDS011;45222;52.458;20.914;2023-10-19T20:42:03;16.60;;;12.40;;
59416;SDS011;45222;52.458;20.914;2023-10-19T20:45:51;15.80;;;13.70;;
59416;SDS011;45222;52.458;20.914;2023-10-19T20:49:38;18.00;;;15.10;;
59416;SDS011;45222;52.458;20.914;2023-10-19T20:53:23;14.70;;;12.40;;
59416;SDS011;45222;52.458;20.914;2023-10-19T20:57:08;14.90;;;12.50;;
59416;SDS011;45222;52.458;20.914;2023-10-19T21:00:54;15.20;;;12.10;;
59416;SDS011;45222;52.458;20.914;2023-10-19T21:04:39;15.80;;;13.40;;
59416;SDS011;45222;52.458;20.914;2023-10-19T21:08:24;16.30;;;13.20;;
59416;SDS011;45222;52.458;20.914;2023-10-19T21:12:12;15.10;;;12.40;;
59416;SDS011;45222;52.458;20.914;2023-10-19T21:15:59;15.50;;;11.80;;
59416;SDS011;45222;52.458;20.914;2023-10-19T21:19:46;13.40;;;11.00;;
59416;SDS011;45222;52.458;20.914;2023-10-19T21:23:32;16.40;;;13.00;;
59416;SDS011;45222;52.458;20.914;2023-10-19T21:27:17;15.30;;;12.80;;
59416;SDS011;45222;52.458;20.914;2023-10-19T21:31:02;14.00;;;11.80;;
59416;SDS011;45222;52.458;20.914;2023-10-19T21:34:48;13.50;;;11.90;;
59416;SDS011;45222;52.458;20.914;2023-10-19T21:38:33;13.10;;;10.60;;
59416;SDS011;45222;52.458;20.914;2023-10-19T21:42:20;14.00;;;11.20;;
59416;SDS011;45222;52.458;20.914;2023-10-19T21:46:05;14.60;;;12.50;;
59416;SDS011;45222;52.458;20.914;2023-10-19T21:49:50;13.70;;;11.40;;
59416;SDS011;45222;52.458;20.914;2023-10-19T21:53:35;13.00;;;10.90;;